Time;durP1;ratioP1;P1;durP2;ratioP2;P2;SDS_P1;SDS_P2;PMS_P1;PMS_P2;Temp;Humidity;BMP_temperature;BMP_pressure;BME280_temperature;BME280_humidity;BME280_pressure;Samples;Min_cycle;Max_cycle;Signal;HPM_P1;HPM_P2
2022/12/06 00:00:13;;;;;;;104.75;44.70;;;;;;;4.13;87.78;94885.08;1661591;85;21248;-47
2022/12/06 00:02:39;;;;;;;76.90;35.60;;;;;;;4.15;87.84;94886.80;1661886;85;21106;-45
2022/12/06 04:06:16;;;;;;;90.53;40.92;;;;;;;3.21;94.17;94704.61;1776232;79;21204;-46
2022/12/06 04:08:42;;;;;;;79.77;38.58;;;;;;;3.30;94.42;94706.27;1753414;80;21365;-47
2022/12/06 04:11:09;;;;;;;83.75;39.65;;;;;;;3.34;94.02;94705.64;1773757;79;21021;-45
2022/12/06 04:13:36;;;;;;;90.15;40.60;;;;;;;3.40;94.15;94705.41;1770898;80;21040;-47
2022/12/06 04:18:09;;;;;;;86.37;43.13;;;;;;;3.48;94.00;94710.95;1754635;80;21044;-47
2022/12/06 04:18:32;;;;;;;100.33;44.95;;;;;;;3.51;93.75;94710.33;1752110;80;22112;-47
2022/12/06 04:23:50;;;;;;;99.55;46.88;;;;;;;3.70;94.34;94704.31;1755039;81;21008;-49
2022/12/06 04:26:19;;;;;;;106.17;49.50;;;;;;;3.86;94.05;94696.37;1779882;80;21591;-49
2022/12/06 04:39:48;;;;;;;63.52;32.42;;;;;;;3.73;91.35;94701.38;1766946;80;21631;-48
2022/12/06 04:45:00;;;;;;;66.25;32.50;;;;;;;3.63;91.19;94702.25;1764481;79;21154;-48
2022/12/06 04:47:26;;;;;;;60.25;32.98;;;;;;;3.53;91.18;94699.06;1760560;80;21243;-47
2022/12/06 04:49:53;;;;;;;70.78;36.88;;;;;;;3.50;91.49;94699.27;1758174;80;20949;-48
2022/12/06 04:52:20;;;;;;;73.85;37.10;;;;;;;3.53;91.65;94691.66;1758537;80;20974;-49
2022/12/06 04:54:47;;;;;;;72.50;36.80;;;;;;;3.53;91.38;94682.14;1750312;80;20986;-48
2022/12/06 04:57:15;;;;;;;70.30;35.48;;;;;;;3.53;91.40;94686.83;1780307;80;21542;-48
2022/12/06 04:59:42;;;;;;;71.82;35.45;;;;;;;3.54;91.42;94693.81;1755425;80;21114;-48
2022/12/06 05:02:12;;;;;;;58.63;31.05;;;;;;;3.52;91.67;94694.20;1766234;80;21163;-48
2022/12/06 05:04:39;;;;;;;56.48;31.80;;;;;;;3.57;91.80;94692.42;1786201;80;21490;-48
2022/12/06 05:07:05;;;;;;;54.27;31.40;;;;;;;3.61;91.59;94689.07;1774167;80;21040;-47
2022/12/06 05:09:32;;;;;;;67.82;36.95;;;;;;;3.58;91.16;94681.72;1724716;80;21040;-47
2022/12/06 05:11:59;;;;;;;60.92;35.00;;;;;;;3.55;91.07;94675.70;1730169;81;21299;-48
2022/12/06 05:14:26;;;;;;;72.87;39.40;;;;;;;3.51;90.95;94670.90;1758530;80;20962;-46
2022/12/06 05:16:52;;;;;;;67.65;37.38;;;;;;;3.47;90.89;94674.85;1759074;80;21077;-48
2022/12/06 05:19:19;;;;;;;78.05;39.63;;;;;;;3.44;90.94;94672.16;1764833;80;21029;-45
2022/12/06 05:21:46;;;;;;;78.60;41.30;;;;;;;3.39;90.98;94673.96;1772285;79;20988;-47
2022/12/06 05:24:13;;;;;;;68.00;37.45;;;;;;;3.38;91.07;94665.63;1774467;80;21251;-47
2022/12/06 05:26:40;;;;;;;68.70;34.88;;;;;;;3.37;91.15;94661.33;1768413;80;21044;-48
2022/12/06 05:29:06;;;;;;;65.00;33.92;;;;;;;3.35;91.11;94660.97;1770954;80;21048;-49
2022/12/06 05:31:33;;;;;;;62.78;33.70;;;;;;;3.35;91.42;94657.67;1767550;80;20969;-47
2022/12/06 05:34:00;;;;;;;58.33;32.70;;;;;;;3.38;91.64;94658.22;1771469;80;21018;-49
2022/12/06 05:36:27;;;;;;;59.55;31.77;;;;;;;3.44;91.99;94649.05;1780282;79;21183;-49
2022/12/06 05:38:55;;;;;;;66.72;31.10;;;;;;;3.46;91.81;94646.09;1772378;79;21210;-49
2022/12/06 05:41:22;;;;;;;65.97;31.65;;;;;;;3.48;91.52;94643.77;1760845;80;21058;-45
2022/12/06 05:43:49;;;;;;;65.17;35.17;;;;;;;3.48;91.29;94653.85;1772564;80;21017;-43
2022/12/06 05:46:15;;;;;;;57.50;30.50;;;;;;;3.46;91.27;94652.89;1812170;79;21324;-46
2022/12/06 05:48:43;;;;;;;67.25;34.08;;;;;;;3.48;91.45;94644.52;1810661;79;21450;-49
2022/12/06 05:51:10;;;;;;;66.95;36.53;;;;;;;3.51;91.35;94645.06;1811329;78;21499;-47
2022/12/06 05:53:37;;;;;;;60.80;34.55;;;;;;;3.51;91.40;94643.70;1775486;79;21148;-48
2022/12/06 05:56:09;;;;;;;81.55;38.58;;;;;;;3.50;91.09;94644.88;1802946;78;21037;-47
2022/12/06 05:58:36;;;;;;;82.97;42.83;;;;;;;3.45;90.89;94651.34;1805478;79;21025;-46
2022/12/06 06:01:05;;;;;;;69.37;33.63;;;;;;;3.40;91.10;94644.23;1812592;79;21239;-48
2022/12/06 06:03:32;;;;;;;94.40;44.00;;;;;;;3.40;91.25;94644.99;1806918;79;20935;-48
2022/12/06 06:06:00;;;;;;;83.35;42.03;;;;;;;3.44;91.75;94643.00;1806318;79;20988;-47
2022/12/06 06:08:27;;;;;;;100.20;43.08;;;;;;;3.45;91.52;94646.51;1809170;78;22057;-48
2022/12/06 06:10:54;;;;;;;103.45;49.50;;;;;;;3.40;91.47;94643.63;1808850;78;20977;-48
2022/12/06 06:13:21;;;;;;;115.35;54.00;;;;;;;3.42;91.60;94647.32;1806171;78;21090;-48
2022/12/06 06:15:48;;;;;;;113.05;51.50;;;;;;;3.44;91.85;94646.33;1810461;78;20981;-48
2022/12/06 06:18:16;;;;;;;108.12;48.98;;;;;;;3.49;92.17;94641.98;1814489;78;21070;-48
2022/12/06 06:20:58;;;;;;;110.48;52.00;;;;;;;3.57;92.09;94644.04;1798622;78;20999;-48
2022/12/06 06:23:31;;;;;;;106.43;47.48;;;;;;;3.59;92.16;94650.63;1787531;78;20974;-48
2022/12/06 06:25:57;;;;;;;95.25;45.55;;;;;;;3.62;91.79;94641.66;1797074;78;21228;-47
2022/12/06 06:28:24;;;;;;;92.57;46.02;;;;;;;3.59;91.51;94641.11;1801249;79;21006;-48
2022/12/06 06:30:51;;;;;;;100.00;47.55;;;;;;;3.56;91.36;94640.56;1809123;79;21096;-46
2022/12/06 06:33:17;;;;;;;94.42;45.55;;;;;;;3.53;91.29;94646.03;1803781;78;21013;-49
2022/12/06 06:35:45;;;;;;;101.60;47.35;;;;;;;3.50;91.49;94637.33;1732585;80;21507;-48
2022/12/06 06:38:11;;;;;;;109.52;49.83;;;;;;;3.52;91.71;94649.33;1758292;80;21519;-48
2022/12/06 06:40:39;;;;;;;98.67;47.53;;;;;;;3.56;91.77;94644.64;1734724;80;21205;-48
2022/12/06 06:43:19;;;;;;;93.67;43.48;;;;;;;3.57;91.52;94635.88;1750589;80;21030;-47
2022/12/06 06:45:57;;;;;;;83.47;42.93;;;;;;;3.55;91.28;94637.63;1687956;82;21205;-51
2022/12/06 06:48:26;;;;;;;89.20;43.50;;;;;;;3.50;91.32;94634.00;1711397;82;21034;-48
2022/12/06 06:50:52;;;;;;;93.25;46.58;;;;;;;3.50;91.32;94629.92;1702489;82;21152;-49
2022/12/06 06:53:20;;;;;;;79.30;39.20;;;;;;;3.48;91.32;94628.02;1722035;81;21106;-59
2022/12/06 06:55:48;;;;;;;87.37;42.25;;;;;;;3.44;91.31;94623.22;1672144;83;21097;-48
2022/12/06 06:58:15;;;;;;;92.00;44.77;;;;;;;3.43;91.48;94616.23;1748706;80;21581;-51
2022/12/06 07:00:44;;;;;;;89.35;42.75;;;;;;;3.53;92.07;94620.95;1741151;80;21033;-50
2022/12/06 07:03:14;;;;;;;78.47;41.10;;;;;;;3.69;92.17;94610.89;1729674;82;21447;-50
2022/12/06 07:08:11;;;;;;;80.15;39.73;;;;;;;3.79;91.42;94608.05;1636541;84;21060;-50
2022/12/06 07:10:47;;;;;;;85.90;41.53;;;;;;;3.86;91.42;94606.59;1655555;84;21301;-47
2022/12/06 07:13:19;;;;;;;68.25;36.75;;;;;;;3.96;91.30;94602.97;1675329;83;21155;-50
2022/12/06 07:15:47;;;;;;;76.85;40.52;;;;;;;4.02;90.72;94595.89;1648639;85;21287;-50
2022/12/06 07:18:16;;;;;;;62.53;35.78;;;;;;;4.05;90.30;94595.06;1651226;85;21069;-49
2022/12/06 07:20:45;;;;;;;52.62;31.60;;;;;;;4.08;90.03;94591.52;1667094;83;21560;-50
2022/12/06 07:23:12;;;;;;;47.08;29.27;;;;;;;4.07;90.01;94585.90;1680213;83;21131;-50
2022/12/06 07:25:39;;;;;;;50.30;30.85;;;;;;;4.12;89.71;94577.30;1656330;84;21132;-48
2022/12/06 07:28:06;;;;;;;27.52;19.37;;;;;;;4.16;89.40;94573.14;1678418;83;21263;-52
2022/12/06 07:30:45;;;;;;;40.08;24.07;;;;;;;4.27;89.84;94579.98;1683689;82;21242;-49
2022/12/06 07:33:17;;;;;;;33.63;22.22;;;;;;;4.43;89.43;94577.41;1683318;83;21084;-52
2022/12/06 07:35:44;;;;;;;25.05;18.50;;;;;;;4.51;88.60;94576.14;1655760;85;21152;-47
2022/12/06 07:38:11;;;;;;;40.78;25.95;;;;;;;4.54;88.43;94563.05;1658533;83;21438;-50
2022/12/06 07:40:41;;;;;;;49.93;30.97;;;;;;;4.62;88.17;94569.16;1673968;84;21256;-50
2022/12/06 07:46:24;;;;;;;63.28;38.08;;;;;;;4.73;87.34;94566.44;1679374;83;21086;-48
2022/12/06 07:48:54;;;;;;;61.35;35.55;;;;;;;4.77;86.90;94567.15;1671911;83;21559;-48
2022/12/06 07:51:21;;;;;;;62.62;36.20;;;;;;;4.86;86.59;94566.04;1661393;83;21068;-50
2022/12/06 07:53:48;;;;;;;54.88;32.03;;;;;;;4.86;85.66;94567.41;1676868;83;21252;-49
2022/12/06 07:56:14;;;;;;;43.87;29.98;;;;;;;4.78;85.36;94561.13;1679085;83;22301;-51
2022/12/06 07:58:42;;;;;;;53.85;32.75;;;;;;;4.69;85.42;94565.73;1642061;84;21055;-48
2022/12/06 08:01:09;;;;;;;49.10;28.92;;;;;;;4.61;85.42;94573.07;1691024;83;21075;-48
2022/12/06 08:03:36;;;;;;;51.95;31.85;;;;;;;4.57;85.41;94571.00;1719289;82;21392;-46
2022/12/06 08:06:04;;;;;;;54.23;31.93;;;;;;;4.56;85.72;94570.22;1776120;79;22136;-46
2022/12/06 08:08:30;;;;;;;39.95;25.88;;;;;;;4.62;85.68;94567.19;1772275;79;21063;-45
2022/12/06 08:11:01;;;;;;;35.63;23.60;;;;;;;4.70;85.40;94567.28;1773196;78;21492;-47
2022/12/06 08:13:34;;;;;;;46.00;30.72;;;;;;;4.74;85.14;94568.56;1723834;81;21038;-50
2022/12/06 08:16:09;;;;;;;34.70;24.95;;;;;;;4.81;85.09;94566.49;1729730;81;21065;-48
2022/12/06 08:18:36;;;;;;;36.55;26.48;;;;;;;4.88;84.75;94577.30;1754417;80;21155;-53
2022/12/06 08:21:03;;;;;;;39.60;26.85;;;;;;;4.91;84.65;94573.73;1726827;81;22182;-49
2022/12/06 08:23:30;;;;;;;39.58;27.00;;;;;;;5.07;84.49;94562.95;1726245;82;21072;-48
2022/12/06 08:26:03;;;;;;;39.78;28.77;;;;;;;5.10;83.61;94555.88;1722754;80;21161;-50
2022/12/06 08:28:32;;;;;;;57.45;34.70;;;;;;;5.05;83.54;94554.42;1744361;80;21691;-50
2022/12/06 08:30:59;;;;;;;72.47;41.28;;;;;;;5.07;83.76;94558.08;1721900;82;21136;-48
2022/12/06 08:33:27;;;;;;;51.55;32.40;;;;;;;5.15;83.85;94556.17;1724183;82;21081;-48
2022/12/06 08:35:53;;;;;;;42.30;28.55;;;;;;;5.28;83.72;94554.38;1719922;81;21120;-49
2022/12/06 08:38:21;;;;;;;43.42;27.02;;;;;;;5.39;82.94;94552.23;1728737;79;21108;-46
2022/12/06 08:40:48;;;;;;;38.58;25.70;;;;;;;5.44;82.27;94557.95;1683152;83;21148;-48
2022/12/06 08:43:15;;;;;;;46.23;28.45;;;;;;;5.44;82.18;94550.38;1636962;85;21908;-48
2022/12/06 08:45:42;;;;;;;38.60;25.62;;;;;;;5.43;81.86;94553.69;1728061;81;21018;-52
2022/12/06 08:48:09;;;;;;;37.67;24.92;;;;;;;5.39;81.69;94553.60;1727828;81;22160;-48
2022/12/06 08:50:37;;;;;;;49.53;29.52;;;;;;;5.33;81.65;94548.44;1723690;82;21094;-50
2022/12/06 08:53:05;;;;;;;46.20;27.93;;;;;;;5.27;81.73;94539.21;1710917;81;21175;-48
2022/12/06 08:55:36;;;;;;;42.85;27.70;;;;;;;5.22;81.74;94529.37;1667266;84;21633;-50
2022/12/06 08:58:04;;;;;;;39.98;27.60;;;;;;;5.19;81.74;94537.78;1704625;82;21171;-50
2022/12/06 09:00:33;;;;;;;50.78;31.35;;;;;;;5.13;81.93;94521.73;1729461;82;21659;-52
2022/12/06 09:03:05;;;;;;;50.85;31.45;;;;;;;5.19;82.72;94522.79;1697950;81;21080;-49
2022/12/06 09:05:36;;;;;;;53.08;33.73;;;;;;;5.34;82.72;94520.76;1758579;81;21027;-49
2022/12/06 09:08:04;;;;;;;47.70;31.40;;;;;;;5.43;82.85;94513.38;1727789;81;21138;-49
2022/12/06 09:10:33;;;;;;;49.95;32.35;;;;;;;5.52;82.59;94513.00;1717502;80;21052;-47
2022/12/06 09:13:01;;;;;;;51.68;33.33;;;;;;;5.58;82.18;94508.58;1764062;79;21100;-53
2022/12/06 09:15:28;;;;;;;52.25;34.23;;;;;;;5.70;82.09;94507.16;1782959;79;21493;-54
2022/12/06 09:17:55;;;;;;;48.80;31.12;;;;;;;5.78;81.46;94509.36;1800868;78;21016;-51
2022/12/06 09:20:22;;;;;;;53.87;34.73;;;;;;;5.80;80.93;94504.85;1773809;79;21132;-49
2022/12/06 09:22:50;;;;;;;47.93;34.08;;;;;;;5.80;80.81;94498.78;1770152;79;21030;-52
2022/12/06 09:25:17;;;;;;;43.48;30.52;;;;;;;5.83;80.66;94497.18;1793085;79;21115;-52
2022/12/06 09:27:47;;;;;;;56.53;31.35;;;;;;;5.82;80.21;94497.02;1769536;79;21069;-54
2022/12/06 09:30:16;;;;;;;47.13;30.68;;;;;;;5.78;80.12;94489.47;1791096;79;21088;-50
2022/12/06 09:32:44;;;;;;;57.35;36.73;;;;;;;5.77;80.29;94481.11;1797409;79;21396;-49
2022/12/06 09:35:10;;;;;;;52.35;32.70;;;;;;;5.77;80.12;94474.29;1799913;79;20994;-48
2022/12/06 09:37:37;;;;;;;49.63;31.52;;;;;;;5.72;80.20;94473.39;1723616;80;21128;-51
2022/12/06 09:40:13;;;;;;;49.75;31.12;;;;;;;5.72;80.35;94467.36;1717094;80;21041;-48
2022/12/06 09:43:18;;;;;;;49.60;35.28;;;;;;;5.75;80.28;94460.30;1686042;83;21033;-51
2022/12/06 09:46:09;;;;;;;37.67;24.52;;;;;;;5.76;80.35;94457.74;1784718;79;21274;-47
2022/12/06 09:49:17;;;;;;;39.85;25.77;;;;;;;5.93;80.18;94451.91;1754907;80;21033;-52
2022/12/06 09:52:01;;;;;;;41.05;25.37;;;;;;;6.06;79.73;94448.69;1760905;80;21058;-51
2022/12/06 09:54:48;;;;;;;39.60;28.32;;;;;;;6.12;79.54;94438.78;1740509;80;21064;-48
2022/12/06 09:57:26;;;;;;;45.92;31.02;;;;;;;6.13;78.94;94426.66;1725644;81;21261;-51
2022/12/06 10:00:16;;;;;;;68.70;41.15;;;;;;;6.12;79.01;94432.57;1673620;85;21136;-51
2022/12/06 10:03:16;;;;;;;67.97;39.42;;;;;;;6.24;79.13;94420.36;1649151;85;21078;-48
2022/12/06 10:06:04;;;;;;;59.25;38.90;;;;;;;6.45;79.31;94420.42;1672824;83;21108;-46
2022/12/06 10:08:58;;;;;;;57.13;36.13;;;;;;;6.67;78.66;94413.24;1671497;84;21064;-49
2022/12/06 10:11:51;;;;;;;53.33;35.03;;;;;;;6.85;77.91;94408.83;1642884;84;21120;-46
2022/12/06 10:14:31;;;;;;;129.38;63.83;;;;;;;6.91;77.21;94403.61;1621953;87;21188;-49
2022/12/06 10:17:26;;;;;;;65.72;35.30;;;;;;;6.97;76.71;94398.56;1624405;87;21056;-46
2022/12/06 10:20:12;;;;;;;77.10;40.73;;;;;;;6.94;76.35;94394.55;1622097;88;22009;-49
2022/12/06 10:23:05;;;;;;;63.28;39.78;;;;;;;6.99;76.45;94399.47;1566690;91;21126;-47
2022/12/06 10:25:56;;;;;;;62.55;40.03;;;;;;;7.12;76.37;94400.45;1561534;90;21152;-48
2022/12/06 10:28:45;;;;;;;64.40;41.20;;;;;;;7.29;75.84;94383.37;1553731;91;21355;-48
2022/12/06 10:31:25;;;;;;;78.00;44.40;;;;;;;7.34;75.53;94382.23;1549110;91;21118;-48
2022/12/06 10:34:01;;;;;;;64.77;40.20;;;;;;;7.44;75.03;94377.06;1566423;90;21148;-48
2022/12/06 10:36:45;;;;;;;63.33;39.13;;;;;;;7.42;74.59;94372.63;1568761;90;21734;-46
2022/12/06 10:39:44;;;;;;;57.38;35.52;;;;;;;7.36;74.46;94367.52;1511231;93;21207;-49
2022/12/06 10:42:48;;;;;;;59.93;37.85;;;;;;;7.38;74.85;94367.84;1501693;93;22575;-45
2022/12/06 10:48:33;;;;;;;58.63;36.13;;;;;;;7.61;74.17;94351.14;1515312;90;21074;-46
2022/12/06 10:51:18;;;;;;;54.13;35.70;;;;;;;7.57;73.92;94350.48;1534506;90;21127;-50
2022/12/06 10:53:52;;;;;;;55.60;36.13;;;;;;;7.47;74.21;94348.82;1536559;91;21176;-46
2022/12/06 10:56:24;;;;;;;59.93;39.13;;;;;;;7.50;74.62;94336.25;1527985;88;21127;-47
2022/12/06 10:59:03;;;;;;;76.40;42.80;;;;;;;7.52;74.36;94331.09;1567979;90;21072;-47
2022/12/06 11:01:36;;;;;;;61.77;40.33;;;;;;;7.57;74.13;94333.28;1475742;93;21533;-48
2022/12/06 11:04:15;;;;;;;52.95;35.75;;;;;;;7.51;73.88;94324.84;1520113;92;21413;-51
2022/12/06 11:07:03;;;;;;;55.75;37.83;;;;;;;7.47;73.88;94322.05;1488886;93;21552;-49
2022/12/06 11:09:39;;;;;;;70.83;36.38;;;;;;;7.42;74.77;94316.53;1506924;92;21616;-48
2022/12/06 11:12:26;;;;;;;62.67;36.53;;;;;;;7.59;74.79;94311.71;1486812;94;21713;-47
2022/12/06 11:15:21;;;;;;;67.60;38.88;;;;;;;7.68;74.28;94311.84;1461583;95;21185;-47
2022/12/06 11:18:11;;;;;;;61.25;37.28;;;;;;;7.75;74.33;94301.43;1419014;99;21315;-49
2022/12/06 11:20:42;;;;;;;53.68;33.70;;;;;;;7.94;74.06;94299.05;1479653;95;21228;-48
2022/12/06 11:23:20;;;;;;;60.30;34.55;;;;;;;8.11;73.68;94296.92;1461544;95;21445;-54
2022/12/06 11:26:19;;;;;;;43.63;30.08;;;;;;;8.22;72.80;94290.53;1459601;95;21209;-48
2022/12/06 11:29:03;;;;;;;54.45;36.93;;;;;;;8.28;72.30;94284.02;1463525;95;21245;-48
2022/12/06 11:31:38;;;;;;;60.88;39.27;;;;;;;8.29;71.88;94282.81;1435154;96;21254;-50
2022/12/06 11:34:13;;;;;;;62.13;39.48;;;;;;;8.34;72.50;94287.74;1458918;96;21337;-48
2022/12/06 11:36:42;;;;;;;60.52;39.48;;;;;;;8.69;72.22;94282.41;1420648;98;21833;-50
2022/12/06 11:39:12;;;;;;;72.37;43.60;;;;;;;9.15;71.48;94280.09;1453613;94;21218;-52
2022/12/06 11:41:40;;;;;;;65.10;43.28;;;;;;;9.45;70.60;94276.60;1483683;95;21137;-48
2022/12/06 11:44:14;;;;;;;85.38;42.48;;;;;;;9.75;70.00;94279.31;1484429;95;21150;-48
2022/12/06 11:46:41;;;;;;;62.55;38.50;;;;;;;10.02;68.74;94277.29;1482960;95;21196;-49
2022/12/06 11:49:19;;;;;;;60.10;36.45;;;;;;;10.08;67.12;94286.45;1482645;95;21306;-48
2022/12/06 11:51:47;;;;;;;59.75;38.98;;;;;;;10.06;66.94;94276.53;1440687;96;21142;-48
2022/12/06 11:54:26;;;;;;;62.38;38.70;;;;;;;10.26;66.32;94265.88;1454554;94;21733;-47
2022/12/06 11:56:58;;;;;;;75.47;46.20;;;;;;;10.48;65.71;94263.75;1489511;94;21213;-49
2022/12/06 11:59:27;;;;;;;64.42;42.75;;;;;;;10.95;65.15;94258.70;1489400;94;21155;-48
2022/12/06 12:01:59;;;;;;;75.25;44.23;;;;;;;11.83;63.83;94257.38;1489887;94;21218;-49
2022/12/06 12:04:40;;;;;;;66.42;40.60;;;;;;;12.58;61.34;94252.63;1484840;94;21430;-49
2022/12/06 12:07:20;;;;;;;66.72;41.23;;;;;;;12.73;59.38;94250.68;1452216;96;21187;-49
2022/12/06 12:09:57;;;;;;;45.15;31.07;;;;;;;12.40;59.59;94249.23;1472234;95;21204;-50
2022/12/06 12:15:32;;;;;;;47.67;28.77;;;;;;;11.67;59.99;94237.86;1428141;98;22447;-51
2022/12/06 12:18:00;;;;;;;45.00;29.87;;;;;;;11.43;60.35;94243.91;1426505;98;21252;-50
2022/12/06 12:20:36;;;;;;;46.50;31.85;;;;;;;11.19;60.64;94245.05;1513625;91;21198;-51
2022/12/06 12:23:09;;;;;;;62.70;43.68;;;;;;;10.91;61.11;94243.55;1518216;92;21300;-50
2022/12/06 12:25:41;;;;;;;53.75;34.80;;;;;;;10.56;61.99;94247.11;1420825;97;21592;-52
2022/12/06 12:28:27;;;;;;;50.67;32.78;;;;;;;10.23;62.78;94244.20;1426919;98;21326;-49
2022/12/06 12:31:21;;;;;;;47.60;31.68;;;;;;;10.01;63.64;94249.03;1449056;96;21258;-49
2022/12/06 12:33:48;;;;;;;48.48;30.50;;;;;;;9.82;64.56;94242.56;1422995;97;21119;-49
2022/12/06 12:36:27;;;;;;;46.68;31.25;;;;;;;9.72;64.81;94247.86;1412231;99;21227;-50
2022/12/06 12:38:59;;;;;;;42.17;30.68;;;;;;;9.52;65.25;94243.38;1416268;98;21315;-51
2022/12/06 12:41:40;;;;;;;57.60;36.17;;;;;;;9.26;65.93;94240.68;1426538;97;21326;-52
2022/12/06 12:44:26;;;;;;;55.70;36.13;;;;;;;9.02;66.50;94236.88;1426332;97;21166;-47
2022/12/06 12:46:57;;;;;;;57.67;36.88;;;;;;;8.81;67.31;94241.03;1422004;97;21662;-53
2022/12/06 12:49:33;;;;;;;56.25;36.83;;;;;;;8.63;68.22;94227.95;1410803;99;21216;-51
2022/12/06 12:52:01;;;;;;;49.67;34.10;;;;;;;8.53;68.84;94231.86;1396782;98;21606;-54
2022/12/06 12:54:36;;;;;;;48.78;33.23;;;;;;;8.40;69.28;94228.41;1368290;101;21394;-52
2022/12/06 12:57:11;;;;;;;55.40;35.45;;;;;;;8.26;69.80;94232.25;1423071;98;21255;-50
2022/12/06 12:59:39;;;;;;;71.82;43.68;;;;;;;8.09;70.62;94227.50;1431446;99;21619;-53
2022/12/06 13:02:23;;;;;;;78.35;50.05;;;;;;;8.04;70.92;94221.84;1426669;95;21357;-51
2022/12/06 13:05:07;;;;;;;75.15;48.45;;;;;;;7.92;71.44;94217.91;1498974;94;21315;-48
2022/12/06 13:07:40;;;;;;;70.50;48.63;;;;;;;7.80;72.20;94212.47;1468567;95;21313;-51
2022/12/06 13:10:31;;;;;;;52.05;37.98;;;;;;;7.77;72.85;94222.35;1483114;95;21164;-52
2022/12/06 13:13:14;;;;;;;50.17;35.50;;;;;;;7.73;73.16;94212.72;1459991;95;21166;-53
2022/12/06 13:15:47;;;;;;;60.48;37.60;;;;;;;7.65;73.67;94222.35;1446976;97;21682;-47
2022/12/06 13:18:36;;;;;;;65.60;39.78;;;;;;;7.56;74.21;94220.28;1428234;99;21703;-47
2022/12/06 13:21:24;;;;;;;97.53;53.75;;;;;;;7.48;74.74;94216.26;1400076;100;21628;-55
2022/12/06 13:23:59;;;;;;;90.17;50.48;;;;;;;7.40;75.30;94214.97;1370249;103;21714;-54
2022/12/06 13:26:33;;;;;;;56.58;34.50;;;;;;;7.32;75.91;94220.48;1364689;102;21217;-55
2022/12/06 13:29:07;;;;;;;42.25;27.60;;;;;;;7.30;76.35;94221.53;1400123;100;21715;-51
2022/12/06 13:31:35;;;;;;;;;;;;;;;7.27;76.51;94224.36;1350368;104;21736;-50
2022/12/06 13:34:20;;;;;;;69.03;40.05;;;;;;;7.21;76.83;94218.70;1349344;104;21232;-48
2022/12/06 13:36:50;;;;;;;83.25;51.05;;;;;;;7.19;77.06;94211.50;1324855;104;21239;-51
2022/12/06 13:39:37;;;;;;;95.12;57.62;;;;;;;7.14;77.28;94215.41;1323567;105;21259;-53
2022/12/06 13:42:21;;;;;;;69.22;42.88;;;;;;;7.15;77.77;94212.23;1331583;104;21259;-48
2022/12/06 13:45:00;;;;;;;52.60;34.40;;;;;;;7.13;77.92;94220.10;1344510;105;21147;-47
2022/12/06 13:47:35;;;;;;;63.90;37.45;;;;;;;7.14;77.98;94220.89;1378139;101;21207;-48
2022/12/06 13:50:19;;;;;;;257.40;110.68;;;;;;;7.10;77.84;94229.19;1384003;101;21204;-46
2022/12/06 13:52:55;;;;;;;280.60;127.15;;;;;;;7.01;78.30;94222.84;1391848;100;21140;-48
2022/12/06 13:55:40;;;;;;;186.43;86.78;;;;;;;7.00;78.41;94221.31;1373240;102;21211;-48
2022/12/06 13:58:12;;;;;;;214.95;97.45;;;;;;;6.94;78.41;94220.92;1373182;101;21183;-48
2022/12/06 14:00:45;;;;;;;122.05;65.90;;;;;;;6.87;78.79;94213.69;1393451;100;22084;-48
2022/12/06 14:03:23;;;;;;;87.47;49.10;;;;;;;6.88;78.91;94212.48;1399717;99;21790;-47
2022/12/06 14:06:11;;;;;;;73.33;46.13;;;;;;;6.86;78.92;94222.34;1395873;101;21222;-49
2022/12/06 14:08:45;;;;;;;78.05;50.00;;;;;;;6.80;79.17;94211.77;1396507;100;21186;-47
2022/12/06 14:11:22;;;;;;;75.55;47.33;;;;;;;6.70;79.32;94202.67;1399497;100;21891;-48
2022/12/06 14:13:58;;;;;;;72.62;48.50;;;;;;;6.70;79.76;94208.76;1401395;100;21256;-48
2022/12/06 14:16:45;;;;;;;89.07;55.38;;;;;;;6.65;79.77;94206.54;1380800;100;21255;-49
2022/12/06 14:19:41;;;;;;;96.28;57.90;;;;;;;6.59;79.99;94211.02;1375989;102;21236;-49
2022/12/06 14:22:22;;;;;;;116.90;68.92;;;;;;;6.53;80.41;94208.67;1376110;102;21683;-46
2022/12/06 14:25:00;;;;;;;152.17;98.67;;;;;;;6.54;80.59;94208.22;1401836;96;21162;-47
2022/12/06 14:27:30;;;;;;;153.55;99.80;;;;;;;6.53;80.63;94201.22;1433869;98;21219;-48
2022/12/06 14:30:21;;;;;;;125.87;84.60;;;;;;;6.50;80.92;94199.36;1449330;97;21544;-46
2022/12/06 14:32:53;;;;;;;136.35;86.90;;;;;;;6.51;81.18;94201.51;1469714;94;21205;-46
2022/12/06 14:35:35;;;;;;;112.33;69.40;;;;;;;6.48;81.17;94191.45;1508259;92;21155;-48
2022/12/06 14:38:23;;;;;;;86.87;55.95;;;;;;;6.47;81.36;94184.42;1530882;91;21689;-47
2022/12/06 14:43:35;;;;;;;116.62;66.72;;;;;;;6.51;81.53;94194.68;1639701;85;21642;-47
2022/12/06 14:46:06;;;;;;;120.10;68.97;;;;;;;6.44;81.23;94201.11;1637834;85;21194;-46
2022/12/06 14:51:24;;;;;;;127.53;72.80;;;;;;;6.37;81.61;94189.61;1571640;89;21676;-46
2022/12/06 14:53:51;;;;;;;110.32;68.47;;;;;;;6.32;81.58;94190.16;1531305;89;21216;-45
2022/12/06 14:56:34;;;;;;;104.78;62.83;;;;;;;6.32;82.21;94184.69;1583825;88;21123;-52
2022/12/06 14:59:05;;;;;;;101.82;61.90;;;;;;;6.33;81.79;94176.66;1560968;89;21134;-47
2022/12/06 15:01:32;;;;;;;95.12;58.17;;;;;;;6.26;81.72;94170.80;1577316;89;21126;-46
2022/12/06 15:04:02;;;;;;;82.22;52.62;;;;;;;6.26;81.98;94168.06;1584784;89;21147;-46
2022/12/06 15:06:31;;;;;;;79.75;52.00;;;;;;;6.26;81.88;94170.02;1572428;90;21141;-46
2022/12/06 15:09:03;;;;;;;80.97;50.28;;;;;;;6.22;81.71;94166.62;1585916;89;21137;-47
2022/12/06 15:14:47;;;;;;;112.32;69.67;;;;;;;6.13;82.23;94148.75;1563653;90;21647;-46
2022/12/06 15:17:18;;;;;;;115.95;72.22;;;;;;;6.18;82.43;94144.87;1568994;89;21115;-48
2022/12/06 15:19:50;;;;;;;109.50;64.62;;;;;;;6.24;82.40;94131.45;1615748;87;21182;-48
2022/12/06 15:22:25;;;;;;;101.45;60.88;;;;;;;6.25;81.82;94128.30;1548237;89;21093;-50
2022/12/06 15:24:55;;;;;;;97.17;59.30;;;;;;;6.21;81.60;94139.16;1481284;96;21426;-44
2022/12/06 15:27:25;;;;;;;99.50;58.50;;;;;;;6.17;81.78;94144.70;1481803;94;21101;-49
2022/12/06 15:29:51;;;;;;;105.95;65.03;;;;;;;6.17;81.69;94141.22;1516117;92;21750;-47
2022/12/06 15:32:20;;;;;;;93.00;59.23;;;;;;;6.09;81.34;94128.95;1501412;93;21362;-47
2022/12/06 15:34:47;;;;;;;87.00;56.80;;;;;;;6.00;81.50;94142.48;1528744;92;21125;-46
2022/12/06 15:37:15;;;;;;;80.15;52.08;;;;;;;5.91;81.42;94132.78;1525802;92;21735;-45
2022/12/06 15:39:42;;;;;;;69.67;47.33;;;;;;;5.81;81.59;94125.66;1497973;95;21156;-47
2022/12/06 15:42:19;;;;;;;100.65;62.70;;;;;;;5.77;81.93;94123.61;1454860;97;21223;-46
2022/12/06 15:44:47;;;;;;;113.57;71.72;;;;;;;5.80;82.02;94128.23;1478580;93;21268;-45
2022/12/06 15:47:14;;;;;;;153.18;96.25;;;;;;;5.78;82.30;94130.01;1532008;92;21074;-45
2022/12/06 15:49:41;;;;;;;231.00;139.62;;;;;;;5.79;82.58;94128.06;1514843;92;21222;-45
2022/12/06 15:52:17;;;;;;;209.37;131.47;;;;;;;5.81;82.88;94132.48;1551358;92;21241;-46
2022/12/06 15:54:44;;;;;;;182.50;108.05;;;;;;;5.88;83.04;94131.69;1519013;93;21109;-47
2022/12/06 15:57:10;;;;;;;160.32;96.02;;;;;;;5.89;82.48;94121.52;1561275;89;21352;-45
2022/12/06 15:59:37;;;;;;;138.20;81.28;;;;;;;5.92;82.73;94115.20;1580919;88;21322;-46
2022/12/06 16:02:14;;;;;;;126.95;72.22;;;;;;;5.98;82.64;94118.95;1573554;89;21089;-46
2022/12/06 16:04:40;;;;;;;121.53;71.77;;;;;;;6.06;82.22;94122.41;1570801;89;21098;-43
2022/12/06 16:07:07;;;;;;;104.50;62.75;;;;;;;6.05;81.86;94112.69;1579215;89;21080;-47
2022/12/06 16:09:34;;;;;;;100.33;62.08;;;;;;;6.06;81.79;94106.03;1582342;89;21288;-46
2022/12/06 16:12:01;;;;;;;101.55;62.90;;;;;;;6.07;81.85;94106.78;1568743;88;21003;-47
2022/12/06 16:14:28;;;;;;;96.67;62.15;;;;;;;6.03;81.83;94102.03;1587671;89;21627;-46
2022/12/06 16:16:55;;;;;;;95.17;58.83;;;;;;;5.97;81.63;94099.67;1592393;89;21495;-47
2022/12/06 16:19:22;;;;;;;86.47;53.10;;;;;;;5.96;81.82;94100.88;1592840;89;21041;-47
2022/12/06 16:21:52;;;;;;;104.05;63.70;;;;;;;5.95;82.04;94100.71;1673316;81;21156;-47
2022/12/06 16:24:19;;;;;;;148.35;83.15;;;;;;;5.96;81.60;94099.52;1763461;81;20954;-46
2022/12/06 16:26:45;;;;;;;164.30;92.75;;;;;;;5.99;81.86;94091.81;1761521;80;21077;-49